Time;durP1;ratioP1;P1;durP2;ratioP2;P2;SDS_P1;SDS_P2;PMS_P1;PMS_P2;Temp;Humidity;BMP_temperature;BMP_pressure;BME280_temperature;BME280_humidity;BME280_pressure;Samples;Min_cycle;Max_cycle;Signal;HPM_P1;HPM_P2
2021/07/25 00:00:10;;;;;;;13.03;8.17;;;;;;;;;;5042225;28;20450;-76
2021/07/25 00:02:39;;;;;;;9.83;7.10;;;;;;;;;;5043249;28;20521;-75
2021/07/25 00:05:07;;;;;;;12.30;7.63;;;;;;;;;;5048799;28;20438;-75
2021/07/25 00:07:34;;;;;;;9.13;8.23;;;;;;;;;;5044147;28;20889;-75
2021/07/25 00:10:02;;;;;;;14.03;8.33;;;;;;;;;;5034909;28;20455;-74
2021/07/25 00:12:29;;;;;;;11.27;8.20;;;;;;;;;;5039912;28;20458;-75
2021/07/25 00:14:56;;;;;;;8.70;7.63;;;;;;;;;;5033269;28;20976;-75
2021/07/25 00:17:23;;;;;;;9.50;8.47;;;;;;;;;;5036860;28;20865;-74
2021/07/25 00:19:52;;;;;;;8.83;7.93;;;;;;;;;;5050010;28;20449;-75
2021/07/25 00:22:19;;;;;;;9.23;7.17;;;;;;;;;;5046446;28;20483;-75
2021/07/25 00:24:51;;;;;;;9.67;8.67;;;;;;;;;;5033610;28;20446;-74
2021/07/25 00:27:26;;;;;;;9.67;7.43;;;;;;;;;;5044701;28;20460;-75
2021/07/25 00:29:54;;;;;;;9.63;7.67;;;;;;;;;;5038936;28;20457;-75
2021/07/25 00:32:21;;;;;;;8.20;7.40;;;;;;;;;;5050567;28;20806;-74
2021/07/25 00:34:48;;;;;;;9.03;7.67;;;;;;;;;;5050615;28;20970;-75
2021/07/25 00:37:17;;;;;;;9.23;8.00;;;;;;;;;;5031953;28;20447;-75
2021/07/25 00:39:44;;;;;;;9.10;8.20;;;;;;;;;;5040289;28;20448;-75
2021/07/25 00:42:11;;;;;;;9.47;7.53;;;;;;;;;;5030854;28;20518;-74
2021/07/25 00:44:38;;;;;;;15.60;7.80;;;;;;;;;;5030311;28;20449;-74
2021/07/25 00:47:06;;;;;;;8.80;7.40;;;;;;;;;;5034310;28;20446;-74
2021/07/25 00:49:33;;;;;;;9.20;7.70;;;;;;;;;;5049941;28;20939;-75
2021/07/25 00:52:00;;;;;;;8.80;7.10;;;;;;;;;;5044899;28;20809;-75
2021/07/25 00:54:28;;;;;;;9.63;8.70;;;;;;;;;;5049332;28;20521;-75
2021/07/25 00:56:56;;;;;;;12.40;8.33;;;;;;;;;;5049837;28;20462;-74
2021/07/25 00:59:23;;;;;;;10.00;8.10;;;;;;;;;;5034088;28;20899;-73
2021/07/25 01:01:50;;;;;;;9.53;8.50;;;;;;;;;;5043079;28;20480;-75
2021/07/25 01:04:22;;;;;;;9.47;8.57;;;;;;;;;;5054105;28;20970;-75
2021/07/25 01:06:56;;;;;;;8.80;7.90;;;;;;;;;;5041959;28;20977;-75
2021/07/25 01:09:26;;;;;;;10.20;8.20;;;;;;;;;;5040857;28;20461;-74
2021/07/25 01:11:57;;;;;;;10.17;8.77;;;;;;;;;;5053424;28;20446;-75
2021/07/25 01:14:27;;;;;;;10.30;8.73;;;;;;;;;;5053822;28;20450;-74
2021/07/25 01:16:57;;;;;;;8.70;7.80;;;;;;;;;;5052522;28;20879;-75
2021/07/25 01:19:24;;;;;;;9.60;8.60;;;;;;;;;;5033638;28;20454;-75
2021/07/25 01:21:53;;;;;;;12.87;8.70;;;;;;;;;;5041175;28;20569;-75
2021/07/25 01:24:20;;;;;;;8.83;7.40;;;;;;;;;;5054069;28;20452;-75
2021/07/25 01:26:47;;;;;;;10.47;7.50;;;;;;;;;;5052101;28;20444;-72
2021/07/25 01:29:14;;;;;;;10.10;6.47;;;;;;;;;;5034948;28;20453;-74
2021/07/25 01:31:43;;;;;;;9.70;7.50;;;;;;;;;;5053059;28;20924;-73
2021/07/25 01:34:11;;;;;;;9.43;8.07;;;;;;;;;;5054256;28;20771;-76
2021/07/25 01:36:40;;;;;;;7.73;7.03;;;;;;;;;;5045722;28;20442;-77
2021/07/25 01:39:08;;;;;;;8.57;7.73;;;;;;;;;;5034634;28;20455;-75
2021/07/25 01:41:43;;;;;;;12.00;7.20;;;;;;;;;;5033227;28;20450;-77
2021/07/25 01:44:10;;;;;;;8.60;6.90;;;;;;;;;;5033196;28;20526;-77
2021/07/25 01:46:37;;;;;;;14.60;8.63;;;;;;;;;;5033006;28;20890;-77
2021/07/25 01:49:04;;;;;;;14.30;8.50;;;;;;;;;;5051649;28;20525;-76
2021/07/25 01:51:32;;;;;;;10.70;8.43;;;;;;;;;;5043451;28;20915;-76
2021/07/25 01:53:59;;;;;;;12.17;8.33;;;;;;;;;;5033372;28;20967;-75
2021/07/25 01:56:28;;;;;;;9.63;8.63;;;;;;;;;;5033959;28;20531;-77
2021/07/25 01:58:56;;;;;;;11.70;8.83;;;;;;;;;;5035442;28;20448;-76
2021/07/25 02:01:23;;;;;;;9.60;8.20;;;;;;;;;;5050453;28;20455;-76
2021/07/25 02:03:50;;;;;;;9.97;8.97;;;;;;;;;;5053105;28;20493;-77
2021/07/25 02:06:18;;;;;;;10.10;9.03;;;;;;;;;;5039344;28;20449;-77
2021/07/25 02:08:45;;;;;;;10.20;9.10;;;;;;;;;;5052735;28;20828;-76
2021/07/25 02:11:12;;;;;;;11.97;9.47;;;;;;;;;;5044982;28;20443;-76
2021/07/25 02:13:40;;;;;;;9.10;8.23;;;;;;;;;;5034941;28;20457;-77
2021/07/25 02:16:08;;;;;;;11.57;8.30;;;;;;;;;;5051261;28;20526;-76
2021/07/25 02:18:35;;;;;;;10.30;8.80;;;;;;;;;;5052326;28;20455;-76
2021/07/25 02:21:02;;;;;;;9.73;8.73;;;;;;;;;;5052820;28;20450;-77
2021/07/25 02:23:29;;;;;;;10.23;8.10;;;;;;;;;;5050760;28;20560;-77
2021/07/25 02:25:56;;;;;;;8.90;8.00;;;;;;;;;;5046062;28;20819;-77
2021/07/25 02:28:23;;;;;;;9.83;7.83;;;;;;;;;;5052461;28;20447;-76
2021/07/25 02:30:52;;;;;;;11.63;8.83;;;;;;;;;;5052847;28;20813;-76
2021/07/25 02:33:19;;;;;;;12.40;9.10;;;;;;;;;;5040592;28;20459;-76
2021/07/25 02:35:46;;;;;;;10.53;7.93;;;;;;;;;;5032439;28;20856;-76
2021/07/25 02:38:13;;;;;;;11.43;8.67;;;;;;;;;;5032217;28;20447;-77
2021/07/25 02:40:40;;;;;;;9.87;8.87;;;;;;;;;;5032117;28;20534;-76
2021/07/25 02:43:07;;;;;;;9.33;8.43;;;;;;;;;;5032410;28;20569;-77
2021/07/25 02:45:34;;;;;;;9.67;8.57;;;;;;;;;;5032372;28;20452;-77
2021/07/25 02:48:03;;;;;;;9.20;7.43;;;;;;;;;;5032204;28;20453;-75
2021/07/25 02:50:30;;;;;;;11.27;8.73;;;;;;;;;;5032112;28;20447;-77
2021/07/25 02:52:57;;;;;;;8.33;7.53;;;;;;;;;;5032215;28;20820;-77
2021/07/25 02:55:25;;;;;;;9.70;8.70;;;;;;;;;;5036440;28;20537;-77
2021/07/25 02:57:52;;;;;;;10.90;8.50;;;;;;;;;;5049821;28;20493;-77
2021/07/25 03:00:20;;;;;;;8.67;7.87;;;;;;;;;;5051648;28;20442;-75
2021/07/25 03:02:47;;;;;;;9.50;8.30;;;;;;;;;;5051387;28;20568;-76
2021/07/25 03:05:15;;;;;;;11.70;8.90;;;;;;;;;;5051868;28;20446;-76
2021/07/25 03:07:43;;;;;;;9.97;8.97;;;;;;;;;;5037253;28;20986;-76
2021/07/25 03:10:10;;;;;;;8.90;8.00;;;;;;;;;;5046408;28;20527;-77
2021/07/25 03:12:37;;;;;;;9.93;8.70;;;;;;;;;;5031835;28;20447;-76
2021/07/25 03:15:05;;;;;;;14.47;9.13;;;;;;;;;;5031979;28;20880;-77
2021/07/25 03:17:32;;;;;;;10.43;9.30;;;;;;;;;;5043841;28;20525;-76
2021/07/25 03:19:59;;;;;;;11.17;8.50;;;;;;;;;;5051710;28;20438;-76
2021/07/25 03:22:27;;;;;;;10.03;9.00;;;;;;;;;;5050975;28;20481;-77
2021/07/25 03:24:55;;;;;;;11.77;9.40;;;;;;;;;;5048242;28;20438;-76
2021/07/25 03:27:22;;;;;;;10.50;8.83;;;;;;;;;;5041931;28;20454;-72
2021/07/25 03:29:49;;;;;;;9.27;8.10;;;;;;;;;;5051443;28;20457;-77
2021/07/25 03:32:18;;;;;;;11.03;9.10;;;;;;;;;;5051347;28;20549;-78
2021/07/25 03:34:46;;;;;;;10.73;8.33;;;;;;;;;;5041509;28;20451;-76
2021/07/25 03:37:13;;;;;;;8.10;7.30;;;;;;;;;;5040816;28;20450;-77
2021/07/25 03:39:44;;;;;;;10.20;8.80;;;;;;;;;;5046628;28;20444;-78
2021/07/25 03:42:13;;;;;;;9.00;8.17;;;;;;;;;;5031760;28;20451;-78
2021/07/25 03:44:40;;;;;;;8.53;7.70;;;;;;;;;;5032884;28;20526;-77
2021/07/25 03:47:08;;;;;;;10.37;9.40;;;;;;;;;;5044334;28;20466;-76
2021/07/25 03:49:35;;;;;;;10.47;9.37;;;;;;;;;;5051191;28;20529;-75
2021/07/25 03:52:04;;;;;;;9.90;8.90;;;;;;;;;;5047424;28;20444;-76
2021/07/25 03:54:31;;;;;;;10.17;8.73;;;;;;;;;;5036402;28;20825;-75
2021/07/25 03:57:00;;;;;;;9.80;8.30;;;;;;;;;;5044093;28;20966;-76
2021/07/25 03:59:27;;;;;;;9.63;8.63;;;;;;;;;;5030907;28;20443;-75
2021/07/25 04:01:54;;;;;;;9.33;8.40;;;;;;;;;;5037744;28;20537;-75
2021/07/25 04:04:21;;;;;;;10.80;8.97;;;;;;;;;;5031006;28;20505;-72
2021/07/25 04:06:49;;;;;;;9.67;8.73;;;;;;;;;;5036112;28;20450;-75
2021/07/25 04:09:16;;;;;;;11.93;8.83;;;;;;;;;;5048368;28;20827;-75
2021/07/25 04:11:43;;;;;;;9.43;8.43;;;;;;;;;;5039614;28;20939;-75
2021/07/25 04:14:11;;;;;;;11.40;9.40;;;;;;;;;;5050032;28;20450;-75
2021/07/25 04:16:39;;;;;;;9.10;8.20;;;;;;;;;;5046631;28;20448;-74
2021/07/25 04:19:06;;;;;;;9.33;8.43;;;;;;;;;;5031074;28;20454;-76
2021/07/25 04:21:33;;;;;;;9.60;8.40;;;;;;;;;;5040027;28;20461;-74
2021/07/25 04:24:00;;;;;;;9.27;8.27;;;;;;;;;;5049567;28;20485;-74
2021/07/25 04:26:27;;;;;;;11.23;8.90;;;;;;;;;;5034424;28;20449;-74
2021/07/25 04:28:54;;;;;;;12.60;8.70;;;;;;;;;;5033420;28;20450;-74
2021/07/25 04:31:23;;;;;;;15.37;9.87;;;;;;;;;;5049707;28;20443;-71
2021/07/25 04:33:53;;;;;;;10.37;8.70;;;;;;;;;;5050915;28;20549;-74
2021/07/25 04:36:25;;;;;;;13.53;9.53;;;;;;;;;;5038471;28;20455;-74
2021/07/25 04:38:53;;;;;;;13.03;8.37;;;;;;;;;;5036399;28;20454;-73
2021/07/25 04:41:22;;;;;;;9.80;8.80;;;;;;;;;;5050171;28;21017;-76
2021/07/25 04:43:51;;;;;;;9.70;8.70;;;;;;;;;;5050962;28;20876;-75
2021/07/25 04:46:18;;;;;;;8.43;7.53;;;;;;;;;;5048090;28;21041;-75
2021/07/25 04:48:50;;;;;;;8.70;8.00;;;;;;;;;;5050213;28;20434;-75
2021/07/25 04:51:19;;;;;;;8.70;7.47;;;;;;;;;;5036709;28;20448;-74
2021/07/25 04:53:49;;;;;;;9.37;7.63;;;;;;;;;;5049545;28;20446;-75
2021/07/25 04:56:16;;;;;;;8.70;7.80;;;;;;;;;;5041277;28;20444;-75
2021/07/25 04:58:47;;;;;;;9.43;7.40;;;;;;;;;;5029974;28;20994;-74
2021/07/25 05:01:16;;;;;;;7.50;6.60;;;;;;;;;;5036793;28;20508;-75
2021/07/25 05:03:44;;;;;;;9.67;7.37;;;;;;;;;;5029721;28;20487;-74
2021/07/25 05:06:13;;;;;;;8.00;7.20;;;;;;;;;;5033481;28;20811;-75
2021/07/25 05:08:41;;;;;;;6.50;5.80;;;;;;;;;;5048986;28;20438;-74
2021/07/25 05:11:10;;;;;;;6.63;6.03;;;;;;;;;;5049203;28;20447;-75
2021/07/25 05:13:37;;;;;;;6.53;5.93;;;;;;;;;;5030154;28;20459;-75
2021/07/25 05:16:08;;;;;;;7.43;6.40;;;;;;;;;;5031375;28;20451;-75
2021/07/25 05:18:38;;;;;;;9.80;7.30;;;;;;;;;;5049960;28;20446;-74
2021/07/25 05:21:10;;;;;;;8.27;6.80;;;;;;;;;;5049738;28;20815;-73
2021/07/25 05:23:44;;;;;;;10.43;6.40;;;;;;;;;;5030921;28;20478;-74
2021/07/25 05:26:12;;;;;;;7.63;5.80;;;;;;;;;;5031344;28;20549;-74
2021/07/25 05:28:40;;;;;;;7.00;6.40;;;;;;;;;;5029873;28;20454;-75
2021/07/25 05:31:08;;;;;;;5.73;5.23;;;;;;;;;;5030404;28;20447;-75
2021/07/25 05:33:36;;;;;;;6.47;5.77;;;;;;;;;;5049345;28;20446;-75
2021/07/25 05:36:03;;;;;;;9.03;6.40;;;;;;;;;;5049763;28;20453;-74
2021/07/25 05:38:30;;;;;;;6.17;5.57;;;;;;;;;;5039631;28;20454;-75
2021/07/25 05:40:58;;;;;;;5.73;5.23;;;;;;;;;;5031629;28;20489;-75
2021/07/25 05:43:26;;;;;;;6.70;6.07;;;;;;;;;;5051125;28;20826;-74
2021/07/25 05:45:53;;;;;;;5.43;4.73;;;;;;;;;;5037770;28;20442;-74
2021/07/25 05:48:20;;;;;;;8.03;5.73;;;;;;;;;;5038088;28;20450;-75
2021/07/25 05:50:47;;;;;;;6.23;5.63;;;;;;;;;;5041011;28;20451;-74
2021/07/25 05:53:14;;;;;;;7.27;5.83;;;;;;;;;;5049478;28;20541;-74
2021/07/25 05:55:41;;;;;;;7.43;6.37;;;;;;;;;;5047971;28;20821;-71
2021/07/25 05:58:10;;;;;;;8.67;6.17;;;;;;;;;;5033392;28;20857;-74
2021/07/25 06:00:37;;;;;;;6.43;5.80;;;;;;;;;;5035320;28;20549;-73
2021/07/25 06:03:05;;;;;;;7.00;5.43;;;;;;;;;;5041981;28;20479;-74
2021/07/25 06:05:33;;;;;;;7.50;6.70;;;;;;;;;;5041374;28;20529;-74
2021/07/25 06:08:01;;;;;;;7.50;5.70;;;;;;;;;;5041126;28;20439;-74
2021/07/25 06:10:29;;;;;;;6.33;5.73;;;;;;;;;;5032961;28;21026;-74
2021/07/25 06:12:57;;;;;;;6.30;5.70;;;;;;;;;;5041497;28;20533;-74
2021/07/25 06:15:26;;;;;;;7.37;6.20;;;;;;;;;;5040929;28;20444;-74
2021/07/25 06:17:53;;;;;;;7.50;5.73;;;;;;;;;;5046555;28;20447;-73
2021/07/25 06:20:20;;;;;;;5.90;5.40;;;;;;;;;;5046937;28;20451;-74
2021/07/25 06:22:48;;;;;;;5.97;5.37;;;;;;;;;;5034164;28;20450;-75
2021/07/25 06:25:18;;;;;;;6.23;5.63;;;;;;;;;;5033813;28;20853;-73
2021/07/25 06:27:45;;;;;;;5.67;5.17;;;;;;;;;;5032540;28;20457;-75
2021/07/25 06:30:12;;;;;;;6.73;6.13;;;;;;;;;;5032901;28;20447;-73
2021/07/25 06:33:00;;;;;;;6.67;6.07;;;;;;;;;;5039378;28;20459;-73
2021/07/25 06:35:29;;;;;;;6.97;6.37;;;;;;;;;;5032280;28;20901;-73
2021/07/25 06:37:56;;;;;;;5.57;5.10;;;;;;;;;;5036182;28;20443;-73
2021/07/25 06:40:25;;;;;;;7.07;6.37;;;;;;;;;;5042956;28;20895;-73
2021/07/25 06:42:52;;;;;;;9.93;6.77;;;;;;;;;;5034714;28;20451;-73
2021/07/25 06:45:20;;;;;;;7.50;6.80;;;;;;;;;;5032411;28;20975;-73
2021/07/25 06:47:48;;;;;;;6.70;6.00;;;;;;;;;;5032442;28;20531;-73
2021/07/25 06:50:17;;;;;;;6.50;5.80;;;;;;;;;;5039239;28;20443;-73
2021/07/25 06:52:44;;;;;;;7.43;6.77;;;;;;;;;;5049200;28;21013;-73
2021/07/25 06:55:12;;;;;;;7.33;6.63;;;;;;;;;;5052123;28;20452;-73
2021/07/25 06:57:39;;;;;;;10.77;6.47;;;;;;;;;;5046846;28;20798;-73
2021/07/25 07:00:07;;;;;;;8.30;6.80;;;;;;;;;;5039176;28;20442;-73
2021/07/25 07:02:48;;;;;;;8.17;7.37;;;;;;;;;;5046322;28;20538;-72
2021/07/25 07:05:16;;;;;;;7.43;6.63;;;;;;;;;;5033176;28;20914;-73
2021/07/25 07:07:43;;;;;;;9.03;7.23;;;;;;;;;;5049355;28;20458;-73
2021/07/25 07:10:11;;;;;;;7.70;6.90;;;;;;;;;;5034579;28;20443;-73
2021/07/25 07:12:38;;;;;;;10.27;7.47;;;20.30;99.90;;;;;;5032461;28;20461;-74
2021/07/25 07:15:06;;;;;;;9.33;7.67;;;;;;;;;;5031682;28;20998;-74
2021/07/25 07:17:33;;;;;;;7.90;7.10;;;;;;;;;;5031587;28;20465;-74
2021/07/25 07:20:00;;;;;;;7.70;6.30;;;;;;;;;;5034887;28;20455;-74
2021/07/25 07:22:29;;;;;;;7.03;6.33;;;;;;;;;;5049482;28;20447;-74
2021/07/25 07:24:56;;;;;;;7.37;6.60;;;;;;;;;;5051556;28;20484;-74
2021/07/25 07:27:24;;;;;;;8.27;6.37;;;;;;;;;;5044372;28;20489;-74
2021/07/25 07:29:52;;;;;;;7.17;6.43;;;;;;;;;;5031623;28;20962;-74
2021/07/25 07:32:19;;;;;;;7.30;6.53;;;;;;;;;;5035167;28;20965;-74
2021/07/25 07:34:46;;;;;;;6.83;6.13;;;;;;;;;;5040962;28;20481;-74
2021/07/25 07:37:13;;;;;;;8.50;6.00;;;;;;;;;;5031649;28;20451;-74
2021/07/25 07:39:43;;;;;;;8.43;6.73;;;;;;;;;;5031073;28;20453;-75
2021/07/25 07:42:10;;;;;;;6.73;6.03;;;;;;;;;;5046381;28;21197;-74
2021/07/25 07:44:38;;;;;;;6.37;5.77;;;;;;;;;;5033763;28;20508;-75
2021/07/25 07:47:05;;;;;;;9.93;5.67;;;;;;;;;;5043111;28;20439;-78
2021/07/25 07:49:32;;;;;;;6.90;6.20;;;;;;;;;;5050459;28;20962;-78
2021/07/25 07:52:00;;;;;;;6.13;5.53;;;;;;;;;;5032887;28;20450;-77
2021/07/25 07:54:28;;;;;;;5.90;5.40;;;;;;;;;;5030831;28;20554;-75
2021/07/25 07:56:56;;;;;;;5.97;5.47;;;;;;;;;;5041605;28;20525;-75
2021/07/25 07:59:23;;;;;;;6.50;5.77;;;;;;;;;;5043011;28;20473;-75
2021/07/25 08:01:51;;;;;;;7.20;6.50;;;;;;;;;;5038092;28;20857;-75
2021/07/25 08:04:18;;;;;;;6.70;6.00;;;;;;;;;;5043424;28;20986;-75
2021/07/25 08:06:45;;;;;;;6.70;5.50;;;;;;;;;;5050389;28;20461;-75
2021/07/25 08:09:12;;;;;;;7.53;6.30;;;;;;;;;;5040604;28;20793;-75
2021/07/25 08:11:43;;;;;;;7.30;6.60;;;;;;;;;;5030584;28;20473;-75
2021/07/25 08:14:12;;;;;;;6.10;5.50;;;;;;;;;;5031009;28;20459;-75
2021/07/25 08:16:39;;;;;;;6.87;6.17;;;;;;;;;;5040567;28;20969;-75
2021/07/25 08:19:06;;;;;;;6.00;5.50;;;;;;;;;;5050644;28;20530;-75
2021/07/25 08:21:34;;;;;;;6.17;5.10;;;;;;;;;;5048837;28;20442;-75
2021/07/25 08:24:01;;;;;;;6.03;5.20;;;;;;;;;;5047790;28;20477;-75
2021/07/25 08:26:28;;;;;;;5.87;5.37;;;;;;;;;;5035417;28;20538;-75
2021/07/25 08:28:55;;;;;;;5.50;4.77;;;;;;;;;;5049247;28;20477;-75
2021/07/25 08:31:24;;;;;;;6.40;4.90;;;;;;;;;;5042376;28;20508;-75
2021/07/25 08:33:51;;;;;;;7.03;5.37;;;;;;;;;;5050551;28;20469;-75
2021/07/25 08:36:18;;;;;;;7.83;4.90;;;;;;;;;;5048335;28;20476;-75
2021/07/25 08:38:46;;;;;;;5.07;4.67;;;;;;;;;;5030371;28;20498;-75
2021/07/25 08:41:14;;;;;;;5.47;4.40;;;;;;;;;;5030758;28;20447;-75
2021/07/25 08:43:42;;;;;;;8.03;4.67;;;;;;;;;;5047091;28;20959;-75
2021/07/25 08:46:14;;;;;;;5.90;4.53;;;;;;;;;;5039871;28;20447;-75
2021/07/25 08:48:45;;;;;;;6.23;5.20;;;;;;;;;;5033282;28;20436;-74
2021/07/25 08:51:16;;;;;;;5.03;4.63;;;;;;;;;;5030031;28;20447;-75
2021/07/25 08:53:47;;;;;;;6.10;5.40;;;;;;;;;;5030369;28;20534;-75
2021/07/25 08:56:15;;;;;;;7.03;5.03;;;;;;;;;;5040151;28;20450;-75
2021/07/25 08:58:45;;;;;;;5.33;4.70;;;;;;;;;;5041063;28;20458;-75
2021/07/25 09:01:14;;;;;;;7.43;5.00;;;;;;;;;;5036181;28;20442;-74
2021/07/25 09:03:43;;;;;;;7.10;5.10;;;;;;;;;;5041467;28;20736;-73
2021/07/25 09:06:10;;;;;;;4.60;4.10;;;;;;;;;;5029804;28;20475;-74
2021/07/25 09:08:37;;;;;;;4.47;4.07;;;;;;;;;;5044957;28;20524;-75
2021/07/25 09:11:08;;;;;;;4.63;4.23;;;;;;;;;;5033441;28;20890;-76
2021/07/25 09:13:35;;;;;;;4.33;3.57;;;;;;;;;;5030353;28;20439;-76
2021/07/25 09:16:02;;;;;;;7.40;5.87;;;;;;;;;;5051365;28;20835;-75
2021/07/25 09:18:29;;;;;;;5.93;5.43;;;;;;;;;;5051417;28;20883;-77
2021/07/25 09:20:58;;;;;;;7.87;6.27;;;;;;;;;;5054364;28;20545;-76
2021/07/25 09:23:27;;;;;;;7.27;5.93;;;;;;;;;;5053527;28;20489;-75
2021/07/25 09:25:55;;;;;;;7.80;6.60;;;;;;;;;;5048084;28;20471;-75
2021/07/25 09:28:26;;;;;;;8.67;7.50;;;;;;;;;;5034625;28;20455;-74
2021/07/25 09:30:54;;;;;;;8.83;6.30;;;;;;;;;;5054059;28;20478;-77
2021/07/25 09:33:32;;;;;;;10.77;6.77;;;;;;;;;;5037798;28;20458;-77
2021/07/25 09:36:05;;;;;;;8.30;6.87;;;;;;;;;;5042090;28;20465;-77
2021/07/25 09:38:32;;;;;;;8.93;7.30;;;;;;;;;;5044972;28;20443;-76
2021/07/25 09:41:00;;;;;;;8.47;7.00;;;;;;;;;;5053567;28;20466;-76
2021/07/25 09:43:28;;;;;;;7.03;6.33;;;;;;;;;;5036396;28;20520;-74
2021/07/25 09:45:57;;;;;;;13.27;8.40;;;;;;;;;;5043495;28;20562;-76
2021/07/25 09:48:24;;;;;;;6.70;6.10;;;;;;;;;;5033169;28;20827;-76
2021/07/25 09:50:52;;;;;;;6.93;6.10;;;;;;;;;;5037825;28;20465;-77
2021/07/25 09:53:22;;;;;;;6.10;5.30;;;;;;;;;;5053478;28;20448;-77
2021/07/25 09:55:49;;;;;;;5.83;4.80;;;;;;;;;;5046364;28;20449;-78
2021/07/25 09:58:16;;;;;;;6.57;5.13;;;;;;;;;;5034985;28;20534;-80
2021/07/25 10:00:44;;;;;;;5.57;5.03;;;;;;;;;;5033297;28;20944;-77
2021/07/25 10:03:24;;;;;;;5.87;5.33;;;;;;;;;;5033610;28;20479;-78
2021/07/25 10:05:52;;;;;;;11.37;5.33;;;;;;;;;;5034321;28;20482;-78
2021/07/25 10:08:20;;;;;;;6.97;6.27;;;;;;;;;;5044937;28;20460;-79
2021/07/25 10:10:49;;;;;;;6.00;5.00;;;;;;;;;;5062831;28;20528;-75
2021/07/25 10:13:17;;;;;;;9.33;5.63;;;;;;;;;;5056234;28;20438;-74
2021/07/25 10:15:48;;;;;;;5.37;4.67;;;;;;;;;;5051444;28;20454;-78
2021/07/25 10:18:16;;;;;;;6.20;5.60;;;;;;;;;;5043311;28;20458;-78
2021/07/25 10:20:43;;;;;;;5.57;5.10;;;;;;;;;;5037211;28;20455;-78
2021/07/25 10:23:10;;;;;;;7.00;6.30;;;;;;;;;;5046684;28;20527;-78
2021/07/25 10:25:38;;;;;;;5.43;4.90;;;;;;;;;;5037816;28;20854;-79
2021/07/25 10:28:07;;;;;;;6.10;5.40;;;;;;;;;;5050111;28;20454;-78
2021/07/25 10:30:34;;;;;;;5.80;5.30;;;;;;;;;;5049330;28;20457;-78
2021/07/25 10:33:02;;;;;;;6.93;4.90;;;;;;;;;;5050863;28;20545;-75
2021/07/25 10:35:30;;;;;;;6.00;5.40;;;;;;;;;;5047781;28;20508;-76
2021/07/25 10:38:01;;;;;;;6.30;5.60;;;;;;;;;;5032282;28;20509;-76
2021/07/25 10:40:29;;;;;;;5.63;4.90;;;;;;;;;;5042844;28;20541;-77
2021/07/25 10:42:56;;;;;;;6.10;5.37;;;;;;;;;;5048385;28;20453;-76
2021/07/25 10:45:24;;;;;;;8.10;5.67;;;;;;;;;;5048644;28;20481;-76
2021/07/25 10:47:52;;;;;;;7.23;5.87;;;;;;;;;;5037075;28;21041;-79
2021/07/25 10:50:20;;;;;;;6.50;5.90;;;;;;;;;;5045821;28;20529;-78
2021/07/25 10:53:03;;;;;;;6.70;5.90;;;;;;;;;;5042905;28;20474;-75
2021/07/25 10:55:49;;;;;;;5.23;4.73;;;;;;;;;;5042790;28;20438;-77
2021/07/25 10:58:18;;;;;;;6.33;5.40;;;;;;;;;;5047630;28;20830;-79
2021/07/25 11:00:47;;;;;;;8.20;6.10;;;;;;;;;;5038873;28;20996;-79
2021/07/25 11:03:34;;;;;;;5.47;4.97;;;;;;;;;;5049774;28;20466;-77
2021/07/25 11:06:15;;;;;;;5.83;5.23;;;;;;;;;;5049730;28;20751;-76
2021/07/25 11:08:44;;;;;;;6.77;5.77;;;;;;;;;;5044288;28;20553;-77
2021/07/25 11:11:26;;;;;;;6.67;6.00;;;;;;;;;;5039598;28;20501;-79
2021/07/25 11:13:53;;;;;;;6.33;5.57;;;;;;;;;;5030272;28;20534;-77
2021/07/25 11:16:39;;;;;;;11.43;6.53;;;;;;;;;;5037132;28;20462;-79
2021/07/25 11:22:04;;;;;;;5.30;4.80;;;;;;;;;;5147111;27;20313;-75
2021/07/25 11:24:38;;;;;;;6.70;5.43;;;;;;;;;;5126661;28;20543;-78
2021/07/25 11:27:08;;;;;;;6.00;5.40;;;;;;;;;;5126112;28;20457;-77
2021/07/25 11:29:43;;;;;;;5.47;4.83;;;;;;;;;;5125842;28;21012;-77
2021/07/25 11:32:26;;;;;;;6.70;5.93;;;;;;;;;;5124597;28;20896;-76
2021/07/25 11:35:02;;;;;;;6.70;5.83;;;;;;;;;;5113148;28;20521;-75
2021/07/25 11:37:35;;;;;;;6.53;5.67;;;;;;;;;;5114692;28;20443;-75
2021/07/25 11:40:02;;;;;;;6.63;5.90;;;;;;;;;;5125597;28;20479;-75
2021/07/25 11:42:30;;;;;;;7.30;6.70;;;;;;;;;;5124536;28;20441;-74
2021/07/25 11:45:02;;;;;;;7.30;5.80;;;;;;;;;;5126191;28;20522;-76
2021/07/25 11:47:34;;;;;;;6.80;6.10;;;;;;;;;;5125771;28;20801;-75
2021/07/25 11:50:01;;;;;;;6.97;6.33;;;;;;;;;;5126250;28;20778;-75
2021/07/25 11:52:28;;;;;;;6.37;5.77;;;;;;;;;;5124925;28;20533;-76
2021/07/25 11:54:57;;;;;;;6.80;6.10;;;;;;;;;;5126424;28;20522;-77
2021/07/25 11:57:27;;;;;;;7.37;6.27;;;;;;;;;;5125664;28;20522;-75
2021/07/25 11:59:57;;;;;;;9.00;6.70;;;;;;;;;;5125083;28;20439;-74
2021/07/25 12:02:25;;;;;;;7.47;6.80;;;;;;;;;;5125238;28;20454;-76
2021/07/25 12:04:53;;;;;;;7.33;5.73;;;;;;;;;;5122033;28;20440;-76
2021/07/25 12:07:21;;;;;;;7.10;6.40;;;;;;;;;;5103621;28;20863;-77
2021/07/25 12:09:49;;;;;;;8.27;6.50;;;;;;;;;;5119276;28;20435;-76
2021/07/25 12:12:18;;;;;;;6.70;6.00;;;;;;;;;;5126116;28;20492;-76
2021/07/25 12:14:47;;;;;;;7.40;6.70;;;;;;;;;;5125956;28;20475;-75
2021/07/25 12:17:14;;;;;;;9.67;6.63;;;;;;;;;;5126267;28;20431;-74
2021/07/25 12:19:43;;;;;;;7.40;6.53;;;;;;;;;;5128935;28;20729;-74
2021/07/25 12:22:11;;;;;;;7.23;6.50;;;;;;;;;;5111497;28;20820;-74
2021/07/25 12:24:40;;;;;;;7.53;6.10;;;;;;;;;;5115147;28;20445;-76
2021/07/25 12:27:08;;;;;;;7.13;6.10;;;;;;;;;;5126195;28;20558;-74
2021/07/25 12:29:37;;;;;;;7.10;5.80;;;;;;;;;;5125179;28;21018;-75
2021/07/25 12:32:21;;;;;;;6.53;5.07;;;22.70;99.90;;;;;;5119060;28;20447;-75
2021/07/25 12:34:49;;;;;;;7.60;5.60;;;20.90;99.90;;;;;;5112217;28;20486;-75
2021/07/25 12:37:30;;;;;;;6.30;5.67;;;20.80;99.90;;;;;;5111473;28;20448;-75
2021/07/25 12:40:11;;;;;;;6.30;5.70;;;20.80;99.90;;;;;;5111672;28;20430;-75
2021/07/25 12:42:40;;;;;;;6.17;5.43;;;20.80;99.90;;;;;;5106068;28;20488;-75
2021/07/25 12:45:29;;;;;;;6.33;5.73;;;20.70;99.90;;;;;;5111489;28;20467;-74
2021/07/25 12:48:10;;;;;;;6.60;5.40;;;20.90;99.90;;;;;;5109210;28;20448;-75
2021/07/25 12:50:47;;;;;;;5.90;4.77;;;20.90;99.90;;;;;;5110726;28;20547;-75
2021/07/25 12:53:20;;;;;;;6.60;5.50;;;21.20;99.90;;;;;;5110452;28;20444;-75
2021/07/25 12:55:48;;;;;;;5.00;4.50;;;21.30;99.90;;;;;;5111259;28;20849;-75
2021/07/25 12:58:15;;;;;;;6.00;5.50;;;21.40;99.90;;;;;;5110680;28;20444;-75
2021/07/25 13:01:05;;;;;;;5.10;4.70;;;;;;;;;;5109973;28;20478;-76
2021/07/25 13:03:52;;;;;;;4.90;4.40;;;;;;;;;;5110318;28;20448;-76
2021/07/25 13:06:20;;;;;;;4.87;4.27;;;;;;;;;;5111289;28;20443;-76
2021/07/25 13:08:48;;;;;;;5.47;4.90;;;;;;;;;;5108374;28;20504;-75
2021/07/25 13:11:16;;;;;;;5.87;5.27;;;;;;;;;;5110671;28;20446;-76
2021/07/25 13:13:44;;;;;;;5.23;4.73;;;;;;;;;;5110167;28;20526;-75
2021/07/25 13:16:13;;;;;;;6.23;5.23;;;;;;;;;;5109869;28;20793;-75
2021/07/25 13:18:41;;;;;;;5.23;4.40;;;;;;;;;;5109908;28;20439;-75
2021/07/25 13:21:08;;;;;;;8.83;5.40;;;;;;;;;;5109488;28;20574;-75
2021/07/25 13:23:35;;;;;;;5.60;5.10;;;;;;;;;;5109637;28;20436;-75
2021/07/25 13:26:02;;;;;;;5.53;5.03;;;;;;;;;;5109888;28;20475;-75
2021/07/25 13:28:29;;;;;;;4.97;4.33;;;;;;;;;;5109434;28;20815;-74
2021/07/25 13:30:58;;;;;;;5.60;5.03;;;;;;;;;;5110516;28;20447;-74
2021/07/25 13:33:27;;;;;;;5.20;4.77;;;;;;;;;;5110285;28;20431;-74
2021/07/25 13:35:54;;;;;;;5.03;4.60;;;;;;;;;;5110787;28;20440;-74
2021/07/25 13:38:22;;;;;;;7.10;5.23;;;;;;;;;;5094113;28;20472;-74
2021/07/25 13:40:49;;;;;;;5.30;4.90;;;;;;;;;;5097681;28;20472;-74
2021/07/25 13:43:16;;;;;;;5.17;4.70;;;;;;;;;;5109372;28;20954;-74
2021/07/25 13:45:45;;;;;;;6.17;5.60;;;;;;;;;;5109061;28;20863;-75
2021/07/25 13:48:13;;;;;;;5.57;5.07;;;;;;;;;;5110059;28;20527;-74
2021/07/25 13:50:43;;;;;;;5.83;5.00;;;;;;;;;;5109640;28;20473;-74
2021/07/25 13:53:11;;;;;;;11.60;5.80;;;;;;;;;;5109580;28;20523;-74
2021/07/25 13:55:38;;;;;;;7.80;6.17;;;;;;;;;;5109589;28;20444;-75
2021/07/25 13:58:06;;;;;;;6.43;5.37;;;;;;;;;;5109570;28;21099;-74
2021/07/25 14:00:33;;;;;;;5.80;5.20;;;;;;;;;;5109827;28;20444;-75
2021/07/25 14:03:02;;;;;;;6.37;5.63;;;;;;;;;;5109349;28;20539;-74
2021/07/25 14:05:30;;;;;;;7.00;5.97;;;;;;;;;;5109064;28;20978;-74
2021/07/25 14:07:59;;;;;;;5.90;5.20;;;;;;;;;;5107510;28;20534;-75
2021/07/25 14:10:26;;;;;;;7.00;6.23;;;;;;;;;;5108945;28;20845;-76
2021/07/25 14:12:53;;;;;;;6.47;5.90;;;;;;;;;;5109998;28;20504;-76
2021/07/25 14:15:21;;;;;;;6.90;6.30;;;;;;;;;;5109710;28;20800;-76
2021/07/25 14:17:48;;;;;;;8.60;6.80;;;;;;;;;;5109499;28;20440;-76
2021/07/25 14:20:16;;;;;;;7.60;6.80;;;;;;;;;;5109690;28;20471;-75
2021/07/25 14:22:43;;;;;;;6.63;6.00;;;;;;;;;;5108815;28;20552;-75
2021/07/25 14:25:12;;;;;;;6.87;6.27;;;;;;;;;;5108141;28;20463;-75
2021/07/25 14:27:39;;;;;;;6.50;5.90;;;;;;;;;;5108228;28;20447;-74
2021/07/25 14:30:07;;;;;;;7.37;5.70;;;;;;;;;;5109334;28;20531;-75
2021/07/25 14:32:35;;;;;;;7.93;7.23;;;;;;;;;;5096839;28;20808;-73
2021/07/25 14:35:02;;;;;;;6.80;5.77;;;;;;;;;;5109054;28;20444;-73
2021/07/25 14:37:29;;;;;;;7.57;6.77;;;;;;;;;;5108707;28;20442;-75
2021/07/25 14:39:57;;;;;;;7.03;5.70;;;;;;;;;;5108239;28;20546;-74
2021/07/25 14:42:25;;;;;;;6.20;5.60;;;;;;;;;;5107425;28;20540;-74
2021/07/25 14:44:52;;;;;;;11.90;10.90;;;;;;;;;;5109163;28;20485;-75
2021/07/25 14:47:20;;;;;;;10.70;9.70;;;;;;;;;;5108342;28;20581;-75